Urb Costa Esmeralda, Puerto Rico
Current Conditions -  °F | °C
As of 8:53 PM on Sunday 21 Dec 2014 (Local Time) from TJNR Reporting Station
Clear Clear  
Wind Chill: 77°   Ceiling: Unl
Heat Index: 79°   Visibility: 10mi
Dew Point: 66°   Wind: 8mph
Humidity: 69%   Direction: 50°NE
Pressure: 30.1"   Gusts: NA
Location:  18.2667°N, 65.6476°W
Report Text: TJNR 220053Z AUTO 05007KT 10SM CLR 25/19 A3010 RMK AO2 SLP191 T02500189 $
Loading
Personal Weather Stations






























Interactive Weather Map New forecast layout! Learn more

10-Day Weather Forecast

Advertisements
Track Severe Weather on mobile